createdAt,value
2022-09-26T00:00:21.995Z,99251.09
2022-09-26T00:02:49.239Z,99241.91
2022-09-26T00:05:16.143Z,99234.28
2022-09-26T00:07:42.819Z,99225.38
2022-09-26T00:10:09.788Z,99224.81
2022-09-26T00:12:36.758Z,99224.06
2022-09-26T00:15:03.675Z,99226.66
2022-09-26T00:17:31.844Z,99218.81
2022-09-26T00:19:58.554Z,99230.81
2022-09-26T00:22:25.215Z,99223.13
2022-09-26T00:24:52.327Z,99232.38
2022-09-26T00:27:20.407Z,99224.91
2022-09-26T00:29:47.863Z,99210.03
2022-09-26T00:32:14.846Z,99215.16
2022-09-26T00:34:41.528Z,99203.56
2022-09-26T00:37:08.222Z,99203.78
2022-09-26T00:39:35.256Z,99202.78
2022-09-26T00:42:01.974Z,99196.91
2022-09-26T00:44:49.542Z,99193.75
2022-09-26T00:47:16.463Z,99200.50
2022-09-26T00:49:43.693Z,99204.88
2022-09-26T00:52:15.875Z,99201.94
2022-09-26T00:54:45.366Z,99178.81
2022-09-26T00:57:13.160Z,99177.06
2022-09-26T00:59:41.982Z,99176.00
2022-09-26T01:02:09.441Z,99174.28
2022-09-26T01:04:38.133Z,99176.81
2022-09-26T01:07:06.203Z,99168.94
2022-09-26T01:09:33.314Z,99173.97
2022-09-26T01:12:00.603Z,99177.87
2022-09-26T01:14:27.836Z,99183.28
2022-09-26T01:16:54.898Z,99174.59
2022-09-26T01:19:21.568Z,99176.59
2022-09-26T01:22:06.678Z,99175.16
2022-09-26T01:25:09.292Z,99167.38
2022-09-26T01:27:38.928Z,99157.16
2022-09-26T01:30:08.796Z,99153.09
2022-09-26T01:32:51.379Z,99163.81
2022-09-26T01:35:22.645Z,99153.66
2022-09-26T01:37:49.401Z,99150.69
2022-09-26T01:40:17.992Z,99155.06
2022-09-26T01:42:47.946Z,99144.34
2022-09-26T01:45:18.480Z,99146.25
2022-09-26T01:47:47.670Z,99153.09
2022-09-26T01:50:18.317Z,99149.34
2022-09-26T01:52:50.837Z,99140.28
2022-09-26T01:55:26.966Z,99152.50
2022-09-26T01:57:56.410Z,99132.56
2022-09-26T02:00:23.100Z,99125.25
2022-09-26T02:02:50.201Z,99127.00
2022-09-26T02:05:46.788Z,99127.84
2022-09-26T02:08:15.877Z,99121.69
2022-09-26T02:10:56.159Z,99119.84
2022-09-26T02:13:27.972Z,99112.31
2022-09-26T02:15:56.425Z,99120.25
2022-09-26T02:18:26.287Z,99109.72
2022-09-26T02:20:55.778Z,99117.22
2022-09-26T02:23:22.546Z,99124.63
2022-09-26T02:25:49.481Z,99135.00
2022-09-26T02:28:16.269Z,99139.56
2022-09-26T02:30:43.511Z,99154.06
2022-09-26T02:33:10.474Z,99159.88
2022-09-26T02:35:55.607Z,99165.22
2022-09-26T02:38:27.479Z,99145.38
2022-09-26T02:41:07.716Z,99134.41
2022-09-26T02:43:34.672Z,99123.81
2022-09-26T02:46:19.582Z,99105.34
2022-09-26T02:48:55.865Z,99120.75
2022-09-26T02:51:26.898Z,99116.94
2022-09-26T02:54:14.048Z,99117.53
2022-09-26T02:56:41.007Z,99116.03
2022-09-26T02:59:35.139Z,99130.63
2022-09-26T03:02:07.569Z,99131.25
2022-09-26T03:04:47.445Z,99123.31
2022-09-26T03:07:16.933Z,99112.91
2022-09-26T03:09:43.973Z,99104.38
2022-09-26T03:12:11.685Z,99107.25
2022-09-26T03:14:39.476Z,99106.31
2022-09-26T03:17:06.653Z,99102.94
2022-09-26T03:19:41.829Z,99107.00
2022-09-26T03:22:09.245Z,99113.25
2022-09-26T03:24:37.004Z,99096.03
2022-09-26T03:27:05.166Z,99092.75
2022-09-26T03:29:32.935Z,99090.19
2022-09-26T03:32:01.181Z,99081.84
2022-09-26T03:34:28.028Z,99073.16
2022-09-26T03:36:55.646Z,99071.69
2022-09-26T03:39:23.278Z,99063.28
2022-09-26T03:41:50.215Z,99066.22
2022-09-26T03:44:17.533Z,99066.94
2022-09-26T03:46:52.320Z,99062.87
2022-09-26T03:49:19.287Z,99054.75
2022-09-26T03:51:46.078Z,99051.25
2022-09-26T03:54:13.106Z,99042.50
2022-09-26T03:56:41.243Z,99042.25
2022-09-26T03:59:08.393Z,99034.72
2022-09-26T04:01:35.539Z,99036.22
2022-09-26T04:04:02.749Z,99033.37
2022-09-26T04:06:30.117Z,99031.63
2022-09-26T04:08:59.041Z,99030.47
2022-09-26T04:11:26.943Z,99029.56
2022-09-26T04:13:54.190Z,99028.03
2022-09-26T04:16:22.792Z,99017.41
2022-09-26T04:18:56.691Z,99027.53
2022-09-26T04:21:24.593Z,99024.72
2022-09-26T04:23:52.863Z,99020.81
2022-09-26T04:26:23.419Z,99022.62
2022-09-26T04:28:55.070Z,99025.97
2022-09-26T04:31:23.250Z,99021.16
2022-09-26T04:33:50.542Z,99018.41
2022-09-26T04:36:17.672Z,99027.41
2022-09-26T04:38:46.095Z,99021.06
2022-09-26T04:41:15.115Z,99017.41
2022-09-26T04:43:42.199Z,99011.22
2022-09-26T04:46:10.819Z,99008.78
2022-09-26T04:48:37.964Z,99020.09
2022-09-26T04:51:07.203Z,99026.13
2022-09-26T04:53:34.761Z,99026.03
2022-09-26T04:56:02.142Z,99045.34
2022-09-26T04:58:32.575Z,99040.81
2022-09-26T05:01:03.832Z,99041.06
2022-09-26T05:03:33.231Z,99026.31
2022-09-26T05:06:01.585Z,99031.34
2022-09-26T05:08:28.363Z,99035.72
2022-09-26T05:10:56.130Z,99031.34
2022-09-26T05:13:23.573Z,99035.03
2022-09-26T05:15:53.259Z,99038.34
2022-09-26T05:18:20.998Z,99025.28
2022-09-26T05:20:48.343Z,99029.81
2022-09-26T05:23:43.657Z,99027.94
2022-09-26T05:26:21.219Z,99023.63
2022-09-26T05:28:48.991Z,99022.34
2022-09-26T05:31:16.492Z,99022.44
2022-09-26T05:33:44.657Z,99017.41
2022-09-26T05:36:11.568Z,99017.97
2022-09-26T05:38:40.396Z,99026.78
2022-09-26T05:41:07.245Z,99026.69
2022-09-26T05:43:34.970Z,99026.53
2022-09-26T05:46:06.307Z,99032.03
2022-09-26T05:48:34.414Z,99045.12
2022-09-26T05:51:21.130Z,99040.97
2022-09-26T05:53:48.554Z,99051.88
2022-09-26T05:56:19.001Z,99040.09
2022-09-26T05:58:48.177Z,99035.50
2022-09-26T06:01:18.793Z,99027.50
2022-09-26T06:03:46.661Z,99017.22
2022-09-26T06:06:14.986Z,99023.97
2022-09-26T06:08:42.150Z,99005.25
2022-09-26T06:11:10.789Z,99002.13
2022-09-26T06:13:37.757Z,98994.44
2022-09-26T06:16:06.566Z,99006.75
2022-09-26T06:18:36.828Z,99003.03
2022-09-26T06:21:04.164Z,98998.47
2022-09-26T06:23:31.833Z,98997.63
2022-09-26T06:26:00.318Z,98992.22
2022-09-26T06:28:27.466Z,98989.19
2022-09-26T06:30:54.411Z,98998.00
2022-09-26T06:33:23.209Z,98999.16
2022-09-26T06:36:04.254Z,99008.66
2022-09-26T06:38:31.438Z,99006.03
2022-09-26T06:41:03.997Z,99018.56
2022-09-26T06:43:32.157Z,99010.63
2022-09-26T06:46:00.167Z,99020.88
2022-09-26T06:48:27.646Z,99016.59
2022-09-26T06:50:57.066Z,99018.50
2022-09-26T06:53:24.246Z,99013.09
2022-09-26T06:55:50.978Z,99007.94
2022-09-26T06:58:18.171Z,99010.84
2022-09-26T07:00:46.902Z,99010.81
2022-09-26T07:03:15.564Z,99010.50
2022-09-26T07:05:45.226Z,99009.66
2022-09-26T07:08:12.192Z,99008.38
2022-09-26T07:10:38.897Z,99006.19
2022-09-26T07:13:06.573Z,99007.59
2022-09-26T07:15:34.431Z,99003.06
2022-09-26T07:18:03.068Z,99011.53
2022-09-26T07:20:34.835Z,99010.69
2022-09-26T07:23:02.850Z,98998.31
2022-09-26T07:25:31.950Z,99003.91
2022-09-26T07:27:59.830Z,99012.38
2022-09-26T07:30:28.312Z,99013.78
2022-09-26T07:33:03.124Z,99016.84
2022-09-26T07:35:34.113Z,99031.94
2022-09-26T07:38:00.961Z,99028.00
2022-09-26T07:40:27.938Z,99021.75
2022-09-26T07:43:18.502Z,99033.91
2022-09-26T07:46:04.314Z,99036.69
2022-09-26T07:48:49.997Z,99047.78
2022-09-26T07:51:19.865Z,99052.00
2022-09-26T07:53:47.291Z,99048.97
2022-09-26T07:56:16.508Z,99053.97
2022-09-26T07:58:43.498Z,99048.87
2022-09-26T08:01:11.554Z,99046.25
2022-09-26T08:03:44.532Z,99045.75
2022-09-26T08:06:14.756Z,99041.66
2022-09-26T08:08:43.323Z,99043.72
2022-09-26T08:11:13.345Z,99048.56
2022-09-26T08:13:43.335Z,99040.31
2022-09-26T08:16:10.858Z,99048.72
2022-09-26T08:18:38.221Z,99049.63
2022-09-26T08:21:05.785Z,99038.00
2022-09-26T08:23:33.620Z,99045.12
2022-09-26T08:26:06.897Z,99046.88
2022-09-26T08:28:34.610Z,99047.09
2022-09-26T08:31:03.023Z,99045.31
2022-09-26T08:33:30.642Z,99045.31
2022-09-26T08:36:02.562Z,99039.88
2022-09-26T08:38:30.570Z,99040.06
2022-09-26T08:41:01.802Z,99052.75
2022-09-26T08:43:51.689Z,99047.06
2022-09-26T08:46:38.845Z,99051.75
2022-09-26T08:49:19.130Z,99047.28
2022-09-26T08:51:46.933Z,99055.13
2022-09-26T08:54:23.921Z,99054.19
2022-09-26T08:56:52.519Z,99049.53
2022-09-26T08:59:25.306Z,99049.34
2022-09-26T09:01:52.748Z,99051.31
2022-09-26T09:04:25.062Z,99049.84
2022-09-26T09:06:53.744Z,99059.66
2022-09-26T09:09:20.884Z,99063.50
2022-09-26T09:11:50.870Z,99073.03
2022-09-26T09:14:21.201Z,99059.53
2022-09-26T09:17:02.700Z,99056.94
2022-09-26T09:19:48.876Z,99053.91
2022-09-26T09:22:38.949Z,99057.69
2022-09-26T09:25:08.997Z,99058.22
2022-09-26T09:27:58.532Z,99049.50
2022-09-26T09:30:30.977Z,99049.59
2022-09-26T09:33:08.834Z,99049.09
2022-09-26T09:35:39.161Z,99047.22
2022-09-26T09:38:11.053Z,99040.16
2022-09-26T09:40:41.439Z,99037.84
2022-09-26T09:43:15.212Z,99034.56
2022-09-26T09:45:47.383Z,99031.47
2022-09-26T09:48:14.343Z,99032.53
2022-09-26T09:50:53.781Z,99031.31
2022-09-26T09:53:41.168Z,99020.84
2022-09-26T09:56:14.124Z,99018.78
2022-09-26T09:58:59.794Z,99019.22
2022-09-26T10:01:28.126Z,99012.59
2022-09-26T10:04:01.378Z,99018.63
2022-09-26T10:06:45.265Z,99015.94
2022-09-26T10:09:39.283Z,99010.87
2022-09-26T10:12:19.457Z,99009.44
2022-09-26T10:15:03.260Z,99007.97
2022-09-26T10:17:32.009Z,99007.25
2022-09-26T10:19:59.353Z,99010.50
2022-09-26T10:22:37.958Z,99006.94
2022-09-26T10:25:08.936Z,99022.03
2022-09-26T10:27:38.110Z,99020.81
2022-09-26T10:30:06.265Z,99022.66
2022-09-26T10:32:33.617Z,99013.22
2022-09-26T10:35:24.379Z,99023.47
2022-09-26T10:38:01.945Z,99035.88
2022-09-26T10:40:48.347Z,99038.88
2022-09-26T10:43:22.877Z,99032.94
2022-09-26T10:45:53.417Z,99039.56
2022-09-26T10:48:24.468Z,99033.31
2022-09-26T10:51:00.627Z,99018.41
2022-09-26T10:53:34.396Z,99028.41
2022-09-26T10:56:02.202Z,99025.53
2022-09-26T10:58:30.091Z,99034.53
2022-09-26T11:00:59.554Z,99033.47
2022-09-26T11:03:40.414Z,99035.81
2022-09-26T11:06:23.901Z,99037.31
2022-09-26T11:08:54.110Z,99030.47
2022-09-26T11:11:22.553Z,99035.25
2022-09-26T11:13:55.904Z,99043.34
2022-09-26T11:16:23.002Z,99043.34
2022-09-26T11:18:59.067Z,99043.47
2022-09-26T11:21:29.508Z,99039.03
2022-09-26T11:24:03.193Z,99036.66
2022-09-26T11:26:39.959Z,99036.38
2022-09-26T11:29:14.958Z,99036.38
2022-09-26T11:31:44.190Z,99036.12
2022-09-26T11:34:14.096Z,99036.06
2022-09-26T11:37:01.664Z,99022.94
2022-09-26T11:39:37.717Z,99016.09
2022-09-26T11:42:25.037Z,99014.91
2022-09-26T11:44:54.031Z,99024.53
2022-09-26T11:47:47.692Z,99018.06
2022-09-26T11:50:24.184Z,99014.47
2022-09-26T11:52:56.925Z,99018.84
2022-09-26T11:55:42.560Z,99019.59
2022-09-26T11:58:16.227Z,99019.88
2022-09-26T12:01:01.890Z,99027.19
2022-09-26T12:03:37.103Z,99021.88
2022-09-26T12:06:04.463Z,99027.44
2022-09-26T12:08:38.937Z,99014.75
2022-09-26T12:11:19.321Z,99006.78
2022-09-26T12:13:58.647Z,98998.59
2022-09-26T12:16:26.757Z,98993.28
2022-09-26T12:18:56.594Z,98991.66
2022-09-26T12:21:23.294Z,98994.53
2022-09-26T12:23:53.899Z,98977.53
2022-09-26T12:26:21.359Z,98972.69
2022-09-26T12:28:54.237Z,98974.88
2022-09-26T12:31:21.798Z,98975.41
2022-09-26T12:34:02.428Z,98968.16
2022-09-26T12:36:31.279Z,98964.28
2022-09-26T12:39:10.365Z,98967.69
2022-09-26T12:41:44.924Z,98965.37
2022-09-26T12:44:19.648Z,98969.84
2022-09-26T12:46:53.745Z,98967.13
2022-09-26T12:49:20.580Z,98957.37
2022-09-26T12:51:48.947Z,98955.72
2022-09-26T12:54:15.653Z,98949.72
2022-09-26T12:56:54.911Z,98948.44
2022-09-26T12:59:45.286Z,98952.72
2022-09-26T13:02:12.503Z,98953.19
2022-09-26T13:04:59.314Z,98949.69
2022-09-26T13:07:43.838Z,98951.44
2022-09-26T13:10:10.899Z,98956.34
2022-09-26T13:12:52.885Z,98956.16
2022-09-26T13:15:44.781Z,98946.72
2022-09-26T13:18:16.308Z,98954.75
2022-09-26T13:20:43.861Z,98953.03
2022-09-26T13:23:19.695Z,98948.47
2022-09-26T13:25:50.795Z,98945.91
2022-09-26T13:28:21.262Z,98948.59
2022-09-26T13:30:54.727Z,98953.16
2022-09-26T13:33:30.047Z,98948.75
2022-09-26T13:35:57.065Z,98947.19
2022-09-26T13:38:43.254Z,98952.84
2022-09-26T13:41:33.277Z,98952.47
2022-09-26T13:44:05.100Z,98957.37
2022-09-26T13:46:40.007Z,98953.75
2022-09-26T13:49:07.190Z,98947.47
2022-09-26T13:51:40.948Z,98959.38
2022-09-26T13:54:19.807Z,98967.38
2022-09-26T13:56:49.157Z,98955.88
2022-09-26T13:59:17.912Z,98933.91
2022-09-26T14:02:03.210Z,98933.13
2022-09-26T14:04:36.349Z,98930.81
2022-09-26T14:07:03.161Z,98936.56
2022-09-26T14:09:45.584Z,98939.69
2022-09-26T14:12:20.350Z,98940.94
2022-09-26T14:14:51.182Z,98944.00
2022-09-26T14:17:37.793Z,98928.03
2022-09-26T14:20:05.820Z,98916.56
2022-09-26T14:22:34.703Z,98914.25
2022-09-26T14:25:02.506Z,98914.53
2022-09-26T14:27:36.362Z,98904.16
2022-09-26T14:30:22.593Z,98905.00
2022-09-26T14:32:49.561Z,98895.81
2022-09-26T14:35:17.051Z,98901.44
2022-09-26T14:37:43.878Z,98896.41
2022-09-26T14:40:10.837Z,98901.81
2022-09-26T14:42:43.604Z,98893.72
2022-09-26T14:45:16.700Z,98898.94
2022-09-26T14:47:44.677Z,98887.72
2022-09-26T14:50:16.397Z,98894.31
2022-09-26T14:52:49.703Z,98889.19
2022-09-26T14:55:16.681Z,98894.09
2022-09-26T14:57:43.385Z,98895.06
2022-09-26T15:00:29.198Z,98897.88
2022-09-26T15:03:00.260Z,98896.56
2022-09-26T15:05:28.170Z,98901.81
2022-09-26T15:07:55.293Z,98893.56
2022-09-26T15:10:23.928Z,98878.38
2022-09-26T15:12:56.161Z,98876.16
2022-09-26T15:15:50.553Z,98875.75
2022-09-26T15:18:17.289Z,98873.97
2022-09-26T15:20:44.915Z,98870.63
2022-09-26T15:23:27.767Z,98872.06
2022-09-26T15:25:56.340Z,98867.50
2022-09-26T15:28:24.468Z,98870.41
2022-09-26T15:31:11.827Z,98864.87
2022-09-26T15:33:39.614Z,98871.56
2022-09-26T15:36:09.393Z,98872.34
2022-09-26T15:38:36.068Z,98874.47
2022-09-26T15:41:04.319Z,98864.06
2022-09-26T15:43:34.512Z,98866.94
2022-09-26T15:46:07.302Z,98872.91
2022-09-26T15:48:36.698Z,98871.84
2022-09-26T15:51:28.677Z,98873.75
2022-09-26T15:53:56.723Z,98871.50
2022-09-26T15:56:23.387Z,98871.41
2022-09-26T15:58:56.095Z,98871.31
2022-09-26T16:01:25.770Z,98877.53
2022-09-26T16:03:53.988Z,98868.34
2022-09-26T16:06:20.731Z,98880.56
2022-09-26T16:08:49.614Z,98879.94
2022-09-26T16:11:16.688Z,98870.44
2022-09-26T16:13:45.743Z,98879.09
2022-09-26T16:16:14.243Z,98878.84
2022-09-26T16:18:47.197Z,98871.91
2022-09-26T16:21:15.063Z,98874.47
2022-09-26T16:23:46.420Z,98880.34
2022-09-26T16:26:40.405Z,98871.59
2022-09-26T16:29:08.810Z,98883.91
2022-09-26T16:31:39.361Z,98882.28
2022-09-26T16:34:16.791Z,98878.59
2022-09-26T16:36:43.779Z,98878.47
2022-09-26T16:39:13.628Z,98876.78
2022-09-26T16:42:02.435Z,98874.25
2022-09-26T16:44:35.224Z,98867.50
2022-09-26T16:47:05.266Z,98863.97
2022-09-26T16:49:34.577Z,98860.75
2022-09-26T16:52:10.567Z,98861.97
2022-09-26T16:54:37.533Z,98865.87
2022-09-26T16:57:04.210Z,98869.09
2022-09-26T16:59:32.319Z,98865.87
2022-09-26T17:02:00.177Z,98867.75
2022-09-26T17:04:34.354Z,98865.56
2022-09-26T17:07:09.593Z,98867.47
2022-09-26T17:09:36.724Z,98865.78
2022-09-26T17:12:03.821Z,98872.91
2022-09-26T17:14:31.484Z,98867.75
2022-09-26T17:16:58.300Z,98884.34
2022-09-26T17:19:27.140Z,98885.44
2022-09-26T17:21:54.961Z,98883.66
2022-09-26T17:24:26.228Z,98885.94
2022-09-26T17:27:05.258Z,98880.94
2022-09-26T17:29:33.401Z,98876.56
2022-09-26T17:32:00.746Z,98884.56
2022-09-26T17:34:28.421Z,98881.69
2022-09-26T17:36:56.891Z,98879.87
2022-09-26T17:39:26.177Z,98878.59
2022-09-26T17:41:53.524Z,98873.22
2022-09-26T17:44:23.274Z,98877.12
2022-09-26T17:46:51.640Z,98884.56
2022-09-26T17:49:26.909Z,98875.75
2022-09-26T17:51:56.255Z,98879.75
2022-09-26T17:54:26.352Z,98883.34
2022-09-26T17:56:53.215Z,98880.91
2022-09-26T17:59:24.381Z,98872.63
2022-09-26T18:01:52.519Z,98870.16
2022-09-26T18:04:19.929Z,98871.00
2022-09-26T18:06:46.725Z,98878.56
2022-09-26T18:09:16.582Z,98873.22
2022-09-26T18:11:44.360Z,98879.97
2022-09-26T18:14:17.215Z,98878.84
2022-09-26T18:16:46.551Z,98880.13
2022-09-26T18:19:13.307Z,98877.50
2022-09-26T18:21:40.604Z,98872.19
2022-09-26T18:24:13.233Z,98874.19
2022-09-26T18:26:47.642Z,98881.72
2022-09-26T18:29:16.436Z,98867.88
2022-09-26T18:31:45.279Z,98874.59
2022-09-26T18:34:13.080Z,98876.16
2022-09-26T18:36:40.563Z,98880.16
2022-09-26T18:39:07.792Z,98871.50
2022-09-26T18:41:35.280Z,98876.44
2022-09-26T18:44:03.734Z,98866.63
2022-09-26T18:46:30.781Z,98860.28
2022-09-26T18:48:58.642Z,98868.81
2022-09-26T18:51:26.229Z,98874.72
2022-09-26T18:53:53.559Z,98875.00
2022-09-26T18:56:40.188Z,98874.81
2022-09-26T18:59:10.242Z,98872.87
2022-09-26T19:01:38.526Z,98870.59
2022-09-26T19:04:06.781Z,98882.53
2022-09-26T19:06:37.666Z,98877.69
2022-09-26T19:09:06.260Z,98883.25
2022-09-26T19:11:35.624Z,98873.28
2022-09-26T19:14:12.197Z,98880.50
2022-09-26T19:16:39.646Z,98884.19
2022-09-26T19:19:06.761Z,98881.03
2022-09-26T19:21:39.432Z,98888.91
2022-09-26T19:24:20.326Z,98889.94
2022-09-26T19:26:48.399Z,98888.91
2022-09-26T19:29:23.942Z,98894.06
2022-09-26T19:31:51.668Z,98888.22
2022-09-26T19:34:18.867Z,98886.03
2022-09-26T19:36:45.787Z,98887.78
2022-09-26T19:39:13.108Z,98880.53
2022-09-26T19:41:46.229Z,98890.97
2022-09-26T19:44:13.417Z,98901.34
2022-09-26T19:46:40.805Z,98900.84
2022-09-26T19:49:07.966Z,98900.25
2022-09-26T19:51:40.655Z,98900.78
2022-09-26T19:54:09.942Z,98895.66
2022-09-26T19:56:36.862Z,98889.34
2022-09-26T19:59:04.593Z,98884.19
2022-09-26T20:01:31.935Z,98887.91
2022-09-26T20:03:59.433Z,98885.12
2022-09-26T20:06:26.274Z,98888.72
2022-09-26T20:08:57.668Z,98878.78
2022-09-26T20:11:27.645Z,98881.34
2022-09-26T20:14:13.303Z,98874.72
2022-09-26T20:16:41.545Z,98875.66
2022-09-26T20:19:10.396Z,98870.81
2022-09-26T20:21:37.262Z,98874.28
2022-09-26T20:24:04.338Z,98877.28
2022-09-26T20:26:32.714Z,98876.41
2022-09-26T20:28:59.545Z,98883.34
2022-09-26T20:31:27.630Z,98891.50
2022-09-26T20:33:55.651Z,98886.13
2022-09-26T20:36:24.748Z,98879.72
2022-09-26T20:38:51.776Z,98877.88
2022-09-26T20:41:18.597Z,98870.06
2022-09-26T20:43:47.033Z,98875.44
2022-09-26T20:46:14.987Z,98881.50
2022-09-26T20:48:42.212Z,98890.25
2022-09-26T20:51:13.948Z,98881.28
2022-09-26T20:53:41.058Z,98878.75
2022-09-26T20:56:18.580Z,98882.00
2022-09-26T20:58:45.596Z,98874.81
2022-09-26T21:01:13.789Z,98874.88
2022-09-26T21:03:44.433Z,98868.22
2022-09-26T21:06:22.520Z,98873.94
2022-09-26T21:08:49.647Z,98862.09
2022-09-26T21:11:17.611Z,98869.03
2022-09-26T21:13:44.419Z,98862.34
2022-09-26T21:16:14.935Z,98864.87
2022-09-26T21:18:43.062Z,98857.75
2022-09-26T21:21:13.586Z,98858.31
2022-09-26T21:23:42.069Z,98853.81
2022-09-26T21:26:19.008Z,98848.53
2022-09-26T21:28:45.802Z,98851.56
2022-09-26T21:31:39.126Z,98852.44
2022-09-26T21:34:05.930Z,98848.75
2022-09-26T21:36:35.187Z,98850.91
2022-09-26T21:39:02.263Z,98844.13
2022-09-26T21:41:29.430Z,98837.44
2022-09-26T21:43:58.089Z,98845.91
2022-09-26T21:46:27.181Z,98844.19
2022-09-26T21:48:54.024Z,98843.03
2022-09-26T21:51:21.540Z,98839.66
2022-09-26T21:53:49.509Z,98836.13
2022-09-26T21:56:17.607Z,98835.53
2022-09-26T21:58:45.854Z,98835.94
2022-09-26T22:01:14.166Z,98831.62
2022-09-26T22:03:41.557Z,98836.19
2022-09-26T22:06:11.773Z,98828.50
2022-09-26T22:08:39.435Z,98816.44
2022-09-26T22:11:07.559Z,98811.53
2022-09-26T22:13:35.075Z,98806.75
2022-09-26T22:16:08.657Z,98800.41
2022-09-26T22:18:35.962Z,98807.75
2022-09-26T22:21:04.447Z,98798.41
2022-09-26T22:23:34.227Z,98801.50
2022-09-26T22:26:01.256Z,98804.06
2022-09-26T22:28:28.232Z,98807.81
2022-09-26T22:30:55.530Z,98800.97
2022-09-26T22:33:22.888Z,98794.44
2022-09-26T22:35:50.107Z,98791.50
2022-09-26T22:38:18.060Z,98783.81
2022-09-26T22:40:45.755Z,98785.97
2022-09-26T22:43:12.870Z,98776.47
2022-09-26T22:45:39.659Z,98778.53
2022-09-26T22:48:06.718Z,98785.03
2022-09-26T22:50:33.514Z,98776.22
2022-09-26T22:53:00.368Z,98761.84
2022-09-26T22:55:27.633Z,98766.59
2022-09-26T22:57:54.389Z,98752.59
2022-09-26T23:00:21.255Z,98751.81
2022-09-26T23:02:48.769Z,98751.13
2022-09-26T23:05:15.664Z,98755.28
2022-09-26T23:07:42.403Z,98747.66
2022-09-26T23:10:10.453Z,98741.38
2022-09-26T23:12:38.030Z,98724.06
2022-09-26T23:15:04.968Z,98729.47
2022-09-26T23:17:33.066Z,98725.50
2022-09-26T23:19:59.749Z,98717.50
2022-09-26T23:22:26.472Z,98714.13
2022-09-26T23:24:53.949Z,98720.03
2022-09-26T23:27:21.679Z,98720.53
2022-09-26T23:29:48.449Z,98715.13
2022-09-26T23:32:15.522Z,98715.53
2022-09-26T23:34:43.143Z,98715.13
2022-09-26T23:37:09.981Z,98712.75
2022-09-26T23:39:36.990Z,98704.97
2022-09-26T23:42:03.926Z,98700.00
2022-09-26T23:44:32.332Z,98701.19
2022-09-26T23:47:02.569Z,98697.69
2022-09-26T23:49:29.329Z,98692.88
2022-09-26T23:51:56.458Z,98691.16
2022-09-26T23:54:23.468Z,98697.31
2022-09-26T23:56:50.255Z,98692.50
2022-09-26T23:59:16.971Z,98683.56
